sensor_id;sensor_type;location;lat;lon;timestamp;pressure;altitude;pressure_sealevel;temperature;humidity
47716;BME280;33476;50.984;3.538;2023-07-13T00:01:45;101566.34;;;20.16;55.05
47716;BME280;33476;50.984;3.538;2023-07-13T00:04:18;101560.91;;;20.18;54.96
47716;BME280;33476;50.984;3.538;2023-07-13T00:06:44;101560.91;;;20.18;55.14
47716;BME280;33476;50.984;3.538;2023-07-13T00:09:12;101560.19;;;20.16;55.25
47716;BME280;33476;50.984;3.538;2023-07-13T00:11:38;101562.00;;;20.15;55.05
47716;BME280;33476;50.984;3.538;2023-07-13T00:14:04;101564.53;;;20.17;55.24
47716;BME280;33476;50.984;3.538;2023-07-13T00:16:30;101561.75;;;20.18;55.20
47716;BME280;33476;50.984;3.538;2023-07-13T00:18:55;101564.19;;;20.22;55.05
47716;BME280;33476;50.984;3.538;2023-07-13T00:21:21;101563.69;;;20.16;55.24
47716;BME280;33476;50.984;3.538;2023-07-13T00:23:46;101560.31;;;20.14;55.46
47716;BME280;33476;50.984;3.538;2023-07-13T00:26:12;101560.56;;;20.11;55.68
47716;BME280;33476;50.984;3.538;2023-07-13T00:28:38;101558.00;;;20.10;55.81
47716;BME280;33476;50.984;3.538;2023-07-13T00:31:04;101553.06;;;20.05;55.89
47716;BME280;33476;50.984;3.538;2023-07-13T00:33:30;101555.00;;;20.03;56.00
47716;BME280;33476;50.984;3.538;2023-07-13T00:35:56;101557.53;;;20.05;56.00
47716;BME280;33476;50.984;3.538;2023-07-13T00:38:22;101558.59;;;20.02;56.21
47716;BME280;33476;50.984;3.538;2023-07-13T00:40:47;101562.13;;;20.03;56.11
47716;BME280;33476;50.984;3.538;2023-07-13T00:43:16;101564.66;;;20.04;56.30
47716;BME280;33476;50.984;3.538;2023-07-13T00:48:08;101559.94;;;20.08;56.12
47716;BME280;33476;50.984;3.538;2023-07-13T00:50:34;101554.63;;;20.08;56.12
47716;BME280;33476;50.984;3.538;2023-07-13T00:52:59;101554.03;;;20.04;56.51
47716;BME280;33476;50.984;3.538;2023-07-13T00:55:24;101558.72;;;20.01;56.64
47716;BME280;33476;50.984;3.538;2023-07-13T00:57:50;101554.75;;;19.95;56.70
47716;BME280;33476;50.984;3.538;2023-07-13T01:00:15;101565.56;;;19.92;57.07
47716;BME280;33476;50.984;3.538;2023-07-13T01:02:43;101560.38;;;19.90;57.05
47716;BME280;33476;50.984;3.538;2023-07-13T01:05:14;101562.50;;;19.85;57.30
47716;BME280;33476;50.984;3.538;2023-07-13T01:07:41;101554.47;;;19.87;57.22
47716;BME280;33476;50.984;3.538;2023-07-13T01:10:07;101560.81;;;19.84;57.30
47716;BME280;33476;50.984;3.538;2023-07-13T01:12:33;101564.31;;;19.85;57.41
47716;BME280;33476;50.984;3.538;2023-07-13T01:14:59;101562.75;;;19.82;57.64
47716;BME280;33476;50.984;3.538;2023-07-13T01:17:26;101568.31;;;19.79;57.66
47716;BME280;33476;50.984;3.538;2023-07-13T01:19:52;101580.72;;;19.79;57.57
47716;BME280;33476;50.984;3.538;2023-07-13T01:22:19;101580.91;;;19.76;57.80
47716;BME280;33476;50.984;3.538;2023-07-13T01:24:46;101574.88;;;19.74;57.75
47716;BME280;33476;50.984;3.538;2023-07-13T01:27:15;101581.03;;;19.74;57.75
47716;BME280;33476;50.984;3.538;2023-07-13T01:29:42;101585.50;;;19.74;57.93
47716;BME280;33476;50.984;3.538;2023-07-13T01:32:09;101587.31;;;19.73;57.98
47716;BME280;33476;50.984;3.538;2023-07-13T01:34:35;101584.41;;;19.76;58.03
47716;BME280;33476;50.984;3.538;2023-07-13T01:37:03;101589.84;;;19.75;57.95
47716;BME280;33476;50.984;3.538;2023-07-13T01:39:28;101584.88;;;19.70;58.25
47716;BME280;33476;50.984;3.538;2023-07-13T01:41:53;101588.59;;;19.68;58.23
47716;BME280;33476;50.984;3.538;2023-07-13T01:44:19;101586.78;;;19.68;58.27
47716;BME280;33476;50.984;3.538;2023-07-13T01:46:44;101586.78;;;19.68;58.43
47716;BME280;33476;50.984;3.538;2023-07-13T01:49:09;101588.25;;;19.72;58.45
47716;BME280;33476;50.984;3.538;2023-07-13T01:51:35;101585.50;;;19.74;58.26
47716;BME280;33476;50.984;3.538;2023-07-13T01:54:00;101589.00;;;19.74;58.23
47716;BME280;33476;50.984;3.538;2023-07-13T01:56:25;101588.47;;;19.69;58.60
47716;BME280;33476;50.984;3.538;2023-07-13T01:58:51;101587.03;;;19.65;58.71
47716;BME280;33476;50.984;3.538;2023-07-13T02:01:17;101588.72;;;19.66;58.75
47716;BME280;33476;50.984;3.538;2023-07-13T02:03:42;101588.72;;;19.66;58.78
47716;BME280;33476;50.984;3.538;2023-07-13T02:06:07;101582.56;;;19.66;58.78
47716;BME280;33476;50.984;3.538;2023-07-13T02:08:33;101588.81;;;19.64;59.07
47716;BME280;33476;50.984;3.538;2023-07-13T02:10:59;101586.75;;;19.57;59.28
47716;BME280;33476;50.984;3.538;2023-07-13T02:13:24;101592.03;;;19.57;59.17
47716;BME280;33476;50.984;3.538;2023-07-13T02:15:51;101586.63;;;19.58;59.39
47716;BME280;33476;50.984;3.538;2023-07-13T02:18:16;101590.84;;;19.61;59.30
47716;BME280;33476;50.984;3.538;2023-07-13T02:20:42;101590.13;;;19.59;59.28
47716;BME280;33476;50.984;3.538;2023-07-13T02:23:08;101585.66;;;19.59;59.38
47716;BME280;33476;50.984;3.538;2023-07-13T02:25:33;101580.47;;;19.58;59.44
47716;BME280;33476;50.984;3.538;2023-07-13T02:27:58;101582.88;;;19.61;59.28
47716;BME280;33476;50.984;3.538;2023-07-13T02:30:24;101579.50;;;19.59;59.31
47716;BME280;33476;50.984;3.538;2023-07-13T02:32:50;101581.44;;;19.57;59.37
47716;BME280;33476;50.984;3.538;2023-07-13T02:35:15;101584.28;;;19.54;59.42
47716;BME280;33476;50.984;3.538;2023-07-13T02:37:41;101580.81;;;19.53;59.68
47716;BME280;33476;50.984;3.538;2023-07-13T02:40:07;101585.97;;;19.55;59.53
47716;BME280;33476;50.984;3.538;2023-07-13T02:42:34;101585.25;;;19.53;59.78
47716;BME280;33476;50.984;3.538;2023-07-13T02:44:59;101582.22;;;19.46;59.86
47716;BME280;33476;50.984;3.538;2023-07-13T02:47:25;101590.03;;;19.48;59.81
47716;BME280;33476;50.984;3.538;2023-07-13T02:49:51;101583.78;;;19.49;59.65
47716;BME280;33476;50.984;3.538;2023-07-13T02:52:17;101584.75;;;19.48;59.72
47716;BME280;33476;50.984;3.538;2023-07-13T02:54:42;101575.94;;;19.47;59.85
47716;BME280;33476;50.984;3.538;2023-07-13T02:57:07;101579.56;;;19.46;60.04
47716;BME280;33476;50.984;3.538;2023-07-13T02:59:33;101578.72;;;19.46;60.01
47716;BME280;33476;50.984;3.538;2023-07-13T03:01:58;101597.34;;;19.44;59.96
47716;BME280;33476;50.984;3.538;2023-07-13T03:04:23;101586.75;;;19.44;60.23
47716;BME280;33476;50.984;3.538;2023-07-13T03:06:49;101587.63;;;19.45;60.30
47716;BME280;33476;50.984;3.538;2023-07-13T03:09:15;101596.50;;;19.44;60.27
47716;BME280;33476;50.984;3.538;2023-07-13T03:11:40;101595.78;;;19.42;60.39
47716;BME280;33476;50.984;3.538;2023-07-13T03:14:07;101587.72;;;19.43;60.19
47716;BME280;33476;50.984;3.538;2023-07-13T03:16:33;101594.69;;;19.44;60.43
47716;BME280;33476;50.984;3.538;2023-07-13T03:18:58;101594.38;;;19.49;60.19
47716;BME280;33476;50.984;3.538;2023-07-13T03:21:23;101592.44;;;19.51;60.34
47716;BME280;33476;50.984;3.538;2023-07-13T03:23:49;101595.22;;;19.49;60.38
47716;BME280;33476;50.984;3.538;2023-07-13T03:26:17;101590.75;;;19.50;60.44
47716;BME280;33476;50.984;3.538;2023-07-13T03:28:43;101591.28;;;19.55;60.46
47716;BME280;33476;50.984;3.538;2023-07-13T03:31:12;101594.78;;;19.55;60.29
47716;BME280;33476;50.984;3.538;2023-07-13T03:33:38;101605.38;;;19.55;60.31
47716;BME280;33476;50.984;3.538;2023-07-13T03:36:05;101601.03;;;19.54;60.38
47716;BME280;33476;50.984;3.538;2023-07-13T03:38:31;101608.22;;;19.52;60.43
47716;BME280;33476;50.984;3.538;2023-07-13T03:40:56;101614.72;;;19.48;60.85
47716;BME280;33476;50.984;3.538;2023-07-13T03:43:21;101614.19;;;19.43;60.74
47716;BME280;33476;50.984;3.538;2023-07-13T03:45:47;101616.06;;;19.30;61.34
47716;BME280;33476;50.984;3.538;2023-07-13T03:48:13;101614.56;;;19.26;61.59
47716;BME280;33476;50.984;3.538;2023-07-13T03:50:38;101608.97;;;19.30;61.47
47716;BME280;33476;50.984;3.538;2023-07-13T03:53:04;101616.47;;;19.36;61.18
47716;BME280;33476;50.984;3.538;2023-07-13T03:55:29;101619.84;;;19.39;61.14
47716;BME280;33476;50.984;3.538;2023-07-13T03:58:01;101618.38;;;19.34;61.22
47716;BME280;33476;50.984;3.538;2023-07-13T04:00:45;101629.47;;;19.40;60.84
47716;BME280;33476;50.984;3.538;2023-07-13T04:03:10;101631.06;;;19.42;60.91
47716;BME280;33476;50.984;3.538;2023-07-13T04:05:36;101637.84;;;19.46;60.92
47716;BME280;33476;50.984;3.538;2023-07-13T04:08:01;101632.31;;;19.49;60.80
47716;BME280;33476;50.984;3.538;2023-07-13T04:10:26;101627.00;;;19.49;60.72
47716;BME280;33476;50.984;3.538;2023-07-13T04:12:52;101626.69;;;19.54;60.62
47716;BME280;33476;50.984;3.538;2023-07-13T04:15:17;101622.13;;;19.56;60.71
47716;BME280;33476;50.984;3.538;2023-07-13T04:17:42;101627.22;;;19.59;60.60
47716;BME280;33476;50.984;3.538;2023-07-13T04:20:08;101633.25;;;19.61;60.64
47716;BME280;33476;50.984;3.538;2023-07-13T04:22:33;101637.63;;;19.62;60.74
47716;BME280;33476;50.984;3.538;2023-07-13T04:24:58;101633.88;;;19.64;60.84
47716;BME280;33476;50.984;3.538;2023-07-13T04:27:24;101641.59;;;19.68;60.52
47716;BME280;33476;50.984;3.538;2023-07-13T04:29:49;101640.88;;;19.66;60.56
47716;BME280;33476;50.984;3.538;2023-07-13T04:32:14;101640.63;;;19.69;60.59
47716;BME280;33476;50.984;3.538;2023-07-13T04:34:40;101645.84;;;19.70;60.74
47716;BME280;33476;50.984;3.538;2023-07-13T04:37:05;101645.00;;;19.70;60.73
47716;BME280;33476;50.984;3.538;2023-07-13T04:39:31;101646.47;;;19.74;60.74
47716;BME280;33476;50.984;3.538;2023-07-13T04:41:56;101654.41;;;19.74;60.72
47716;BME280;33476;50.984;3.538;2023-07-13T04:44:21;101656.09;;;19.75;60.67
47716;BME280;33476;50.984;3.538;2023-07-13T04:46:46;101661.28;;;19.76;60.82
47716;BME280;33476;50.984;3.538;2023-07-13T04:49:12;101662.97;;;19.77;60.72
47716;BME280;33476;50.984;3.538;2023-07-13T04:51:37;101659.03;;;19.83;60.62
47716;BME280;33476;50.984;3.538;2023-07-13T04:54:03;101658.19;;;19.82;60.62
47716;BME280;33476;50.984;3.538;2023-07-13T04:56:30;101648.44;;;19.83;60.92
47716;BME280;33476;50.984;3.538;2023-07-13T04:58:55;101648.94;;;19.88;60.65
47716;BME280;33476;50.984;3.538;2023-07-13T05:01:21;101655.50;;;19.95;60.55
47716;BME280;33476;50.984;3.538;2023-07-13T05:03:46;101650.75;;;19.87;60.90
47716;BME280;33476;50.984;3.538;2023-07-13T05:06:11;101651.06;;;19.83;60.95
47716;BME280;33476;50.984;3.538;2023-07-13T05:08:38;101658.91;;;19.84;61.17
47716;BME280;33476;50.984;3.538;2023-07-13T05:11:05;101658.47;;;19.90;60.99
47716;BME280;33476;50.984;3.538;2023-07-13T05:13:32;101663.22;;;19.98;60.89
47716;BME280;33476;50.984;3.538;2023-07-13T05:15:59;101673.97;;;20.08;60.61
47716;BME280;33476;50.984;3.538;2023-07-13T05:18:25;101667.50;;;20.12;60.66
47716;BME280;33476;50.984;3.538;2023-07-13T05:21:05;101674.94;;;20.07;60.76
47716;BME280;33476;50.984;3.538;2023-07-13T05:23:33;101679.16;;;20.09;60.85
47716;BME280;33476;50.984;3.538;2023-07-13T05:25:58;101681.72;;;20.11;61.06
47716;BME280;33476;50.984;3.538;2023-07-13T05:28:25;101680.75;;;20.12;60.95
47716;BME280;33476;50.984;3.538;2023-07-13T05:30:50;101683.50;;;20.10;60.99
47716;BME280;33476;50.984;3.538;2023-07-13T05:33:16;101684.25;;;20.12;61.08
47716;BME280;33476;50.984;3.538;2023-07-13T05:35:42;101688.47;;;20.15;61.13
47716;BME280;33476;50.984;3.538;2023-07-13T05:38:07;101685.13;;;20.24;60.85
47716;BME280;33476;50.984;3.538;2023-07-13T05:40:33;101688.28;;;20.29;60.59
47716;BME280;33476;50.984;3.538;2023-07-13T05:42:58;101693.88;;;20.37;60.49
47716;BME280;33476;50.984;3.538;2023-07-13T05:45:23;101696.16;;;20.42;60.36
47716;BME280;33476;50.984;3.538;2023-07-13T05:47:49;101695.56;;;20.38;60.61
47716;BME280;33476;50.984;3.538;2023-07-13T05:50:15;101689.75;;;20.33;60.81
47716;BME280;33476;50.984;3.538;2023-07-13T05:52:40;101699.50;;;20.33;60.86
47716;BME280;33476;50.984;3.538;2023-07-13T05:55:06;101703.41;;;20.40;60.70
47716;BME280;33476;50.984;3.538;2023-07-13T05:57:31;101702.00;;;20.47;60.53
47716;BME280;33476;50.984;3.538;2023-07-13T05:59:57;101704.78;;;20.45;60.58
47716;BME280;33476;50.984;3.538;2023-07-13T06:02:22;101701.03;;;20.48;60.53
47716;BME280;33476;50.984;3.538;2023-07-13T06:04:48;101704.22;;;20.53;60.54
47716;BME280;33476;50.984;3.538;2023-07-13T06:07:13;101711.09;;;20.56;60.57
47716;BME280;33476;50.984;3.538;2023-07-13T06:09:38;101713.16;;;20.63;60.52
47716;BME280;33476;50.984;3.538;2023-07-13T06:12:04;101713.53;;;20.70;60.36
47716;BME280;33476;50.984;3.538;2023-07-13T06:14:30;101713.41;;;20.71;60.39
47716;BME280;33476;50.984;3.538;2023-07-13T06:16:55;101724.44;;;20.78;60.15
47716;BME280;33476;50.984;3.538;2023-07-13T06:19:20;101732.53;;;20.88;59.78
47716;BME280;33476;50.984;3.538;2023-07-13T06:21:46;101732.41;;;20.89;59.86
47716;BME280;33476;50.984;3.538;2023-07-13T06:24:11;101732.91;;;20.94;59.72
47716;BME280;33476;50.984;3.538;2023-07-13T06:26:37;101737.00;;;20.98;59.35
47716;BME280;33476;50.984;3.538;2023-07-13T06:29:02;101739.19;;;21.04;59.38
47716;BME280;33476;50.984;3.538;2023-07-13T06:31:27;101741.47;;;21.09;59.10
47716;BME280;33476;50.984;3.538;2023-07-13T06:33:53;101743.41;;;21.18;59.10
47716;BME280;33476;50.984;3.538;2023-07-13T06:36:18;101735.50;;;21.29;58.94
47716;BME280;33476;50.984;3.538;2023-07-13T06:38:44;101743.22;;;21.44;58.52
47716;BME280;33476;50.984;3.538;2023-07-13T06:41:09;101750.22;;;21.56;58.39
47716;BME280;33476;50.984;3.538;2023-07-13T06:43:35;101742.84;;;21.59;57.87
47716;BME280;33476;50.984;3.538;2023-07-13T06:46:00;101745.25;;;21.63;58.21
47716;BME280;33476;50.984;3.538;2023-07-13T06:48:26;101739.81;;;21.64;58.30
47716;BME280;33476;50.984;3.538;2023-07-13T06:50:52;101742.84;;;21.71;57.89
47716;BME280;33476;50.984;3.538;2023-07-13T06:53:19;101739.78;;;21.75;57.79
47716;BME280;33476;50.984;3.538;2023-07-13T06:55:45;101737.00;;;21.88;57.77
47716;BME280;33476;50.984;3.538;2023-07-13T06:58:12;101734.41;;;22.09;56.98
47716;BME280;33476;50.984;3.538;2023-07-13T07:00:37;101737.28;;;22.17;56.52
47716;BME280;33476;50.984;3.538;2023-07-13T07:03:05;101729.16;;;22.30;56.76
47716;BME280;33476;50.984;3.538;2023-07-13T07:05:30;101731.91;;;22.39;56.20
47716;BME280;33476;50.984;3.538;2023-07-13T07:07:56;101742.56;;;22.60;55.87
47716;BME280;33476;50.984;3.538;2023-07-13T07:10:21;101743.84;;;22.66;55.33
47716;BME280;33476;50.984;3.538;2023-07-13T07:12:47;101739.50;;;22.65;55.02
47716;BME280;33476;50.984;3.538;2023-07-13T07:15:14;101742.31;;;22.63;54.51
47716;BME280;33476;50.984;3.538;2023-07-13T07:17:40;101741.81;;;22.69;54.31
47716;BME280;33476;50.984;3.538;2023-07-13T07:20:05;101749.94;;;22.89;54.22
47716;BME280;33476;50.984;3.538;2023-07-13T07:22:31;101745.81;;;23.06;53.78
47716;BME280;33476;50.984;3.538;2023-07-13T07:24:57;101749.66;;;23.13;53.47
47716;BME280;33476;50.984;3.538;2023-07-13T07:27:23;101746.59;;;23.17;53.22
47716;BME280;33476;50.984;3.538;2023-07-13T07:29:48;101748.34;;;23.07;53.11
47716;BME280;33476;50.984;3.538;2023-07-13T07:32:14;101749.34;;;23.06;53.31
47716;BME280;33476;50.984;3.538;2023-07-13T07:34:39;101756.34;;;23.07;53.01
47716;BME280;33476;50.984;3.538;2023-07-13T07:37:05;101756.94;;;23.11;52.86
47716;BME280;33476;50.984;3.538;2023-07-13T07:39:30;101756.53;;;23.15;52.79
47716;BME280;33476;50.984;3.538;2023-07-13T07:41:56;101756.47;;;23.26;52.96
47716;BME280;33476;50.984;3.538;2023-07-13T07:44:21;101756.69;;;23.44;52.33
47716;BME280;33476;50.984;3.538;2023-07-13T07:46:47;101764.78;;;23.64;51.75
47716;BME280;33476;50.984;3.538;2023-07-13T07:49:12;101755.66;;;23.66;51.63
47716;BME280;33476;50.984;3.538;2023-07-13T07:51:38;101756.25;;;23.70;51.85
47716;BME280;33476;50.984;3.538;2023-07-13T07:54:04;101752.75;;;23.79;51.44
47716;BME280;33476;50.984;3.538;2023-07-13T07:56:30;101761.63;;;23.89;50.91
47716;BME280;33476;50.984;3.538;2023-07-13T07:58:55;101759.78;;;23.80;50.90
47716;BME280;33476;50.984;3.538;2023-07-13T08:01:21;101761.28;;;23.73;51.11
47716;BME280;33476;50.984;3.538;2023-07-13T08:03:46;101756.53;;;23.76;51.56
47716;BME280;33476;50.984;3.538;2023-07-13T08:06:11;101756.56;;;23.86;51.19
47716;BME280;33476;50.984;3.538;2023-07-13T08:08:37;101756.88;;;24.02;50.79
47716;BME280;33476;50.984;3.538;2023-07-13T08:11:04;101756.59;;;24.15;50.38
47716;BME280;33476;50.984;3.538;2023-07-13T08:13:30;101756.38;;;24.37;49.68
47716;BME280;33476;50.984;3.538;2023-07-13T08:15:55;101756.50;;;24.46;49.16
47716;BME280;33476;50.984;3.538;2023-07-13T08:18:21;101762.97;;;24.43;48.30
47716;BME280;33476;50.984;3.538;2023-07-13T08:20:46;101764.66;;;24.34;48.98
47716;BME280;33476;50.984;3.538;2023-07-13T08:23:12;101762.00;;;24.34;49.02
47716;BME280;33476;50.984;3.538;2023-07-13T08:25:37;101755.66;;;24.35;48.38
47716;BME280;33476;50.984;3.538;2023-07-13T08:28:03;101756.81;;;24.43;48.20
47716;BME280;33476;50.984;3.538;2023-07-13T08:30:28;101762.84;;;24.35;46.60
47716;BME280;33476;50.984;3.538;2023-07-13T08:32:54;101757.19;;;24.28;46.26
47716;BME280;33476;50.984;3.538;2023-07-13T08:35:19;101754.28;;;24.41;45.93
47716;BME280;33476;50.984;3.538;2023-07-13T08:37:45;101752.44;;;24.61;46.23
47716;BME280;33476;50.984;3.538;2023-07-13T08:40:11;101748.59;;;24.73;45.55
47716;BME280;33476;50.984;3.538;2023-07-13T08:42:39;101752.84;;;24.76;44.27
47716;BME280;33476;50.984;3.538;2023-07-13T08:45:14;101762.38;;;24.78;44.49
47716;BME280;33476;50.984;3.538;2023-07-13T08:48:05;101759.53;;;24.89;44.99
47716;BME280;33476;50.984;3.538;2023-07-13T08:53:23;101759.72;;;25.35;44.50
47716;BME280;33476;50.984;3.538;2023-07-13T08:55:57;101755.88;;;25.47;44.13
47716;BME280;33476;50.984;3.538;2023-07-13T08:58:25;101755.69;;;25.58;44.15
47716;BME280;33476;50.984;3.538;2023-07-13T09:06:34;101758.38;;;25.86;44.04
47716;BME280;33476;50.984;3.538;2023-07-13T09:12:09;101762.81;;;25.95;43.22
47716;BME280;33476;50.984;3.538;2023-07-13T09:14:42;101757.72;;;26.01;43.10
47716;BME280;33476;50.984;3.538;2023-07-13T09:17:17;101760.31;;;26.11;42.47
47716;BME280;33476;50.984;3.538;2023-07-13T09:19:48;101761.16;;;26.29;42.47
47716;BME280;33476;50.984;3.538;2023-07-13T09:22:19;101758.88;;;26.35;42.32
47716;BME280;33476;50.984;3.538;2023-07-13T09:25:05;101756.28;;;26.25;42.27
47716;BME280;33476;50.984;3.538;2023-07-13T09:27:43;101762.91;;;26.21;42.83
47716;BME280;33476;50.984;3.538;2023-07-13T09:32:41;101759.03;;;26.15;41.66
47716;BME280;33476;50.984;3.538;2023-07-13T09:35:12;101750.84;;;26.17;41.87
47716;BME280;33476;50.984;3.538;2023-07-13T09:37:43;101757.31;;;26.14;41.11
47716;BME280;33476;50.984;3.538;2023-07-13T09:40:20;101760.06;;;26.04;41.45
47716;BME280;33476;50.984;3.538;2023-07-13T09:42:48;101761.56;;;26.17;42.00
47716;BME280;33476;50.984;3.538;2023-07-13T09:45:27;101760.06;;;26.22;41.67
47716;BME280;33476;50.984;3.538;2023-07-13T09:47:59;101756.34;;;26.33;41.99
47716;BME280;33476;50.984;3.538;2023-07-13T09:50:25;101763.91;;;26.55;41.74
47716;BME280;33476;50.984;3.538;2023-07-13T09:52:50;101753.91;;;26.57;40.63
47716;BME280;33476;50.984;3.538;2023-07-13T09:57:49;101770.03;;;26.48;40.72
47716;BME280;33476;50.984;3.538;2023-07-13T10:00:25;101761.72;;;26.51;40.03
47716;BME280;33476;50.984;3.538;2023-07-13T10:02:59;101765.25;;;26.51;39.69
47716;BME280;33476;50.984;3.538;2023-07-13T10:05:25;101761.66;;;26.43;39.62
47716;BME280;33476;50.984;3.538;2023-07-13T10:07:51;101765.16;;;26.61;40.19
47716;BME280;33476;50.984;3.538;2023-07-13T10:10:20;101760.91;;;26.76;39.27
47716;BME280;33476;50.984;3.538;2023-07-13T10:12:46;101766.56;;;26.91;39.11
47716;BME280;33476;50.984;3.538;2023-07-13T10:15:21;101767.56;;;26.72;39.21
47716;BME280;33476;50.984;3.538;2023-07-13T10:17:47;101772.50;;;26.59;39.03
47716;BME280;33476;50.984;3.538;2023-07-13T10:20:14;101769.84;;;26.59;39.60
47716;BME280;33476;50.984;3.538;2023-07-13T10:22:49;101766.47;;;26.57;39.19
47716;BME280;33476;50.984;3.538;2023-07-13T10:25:20;101779.94;;;26.65;38.84
47716;BME280;33476;50.984;3.538;2023-07-13T10:27:50;101777.09;;;26.67;38.56
47716;BME280;33476;50.984;3.538;2023-07-13T10:30:25;101773.25;;;26.69;38.58
47716;BME280;33476;50.984;3.538;2023-07-13T10:32:53;101779.22;;;26.63;38.69
47716;BME280;33476;50.984;3.538;2023-07-13T10:35:20;101800.91;;;26.52;39.05
47716;BME280;33476;50.984;3.538;2023-07-13T10:37:55;101809.13;;;26.23;40.76
47716;BME280;33476;50.984;3.538;2023-07-13T10:40:26;101815.25;;;25.88;45.59
47716;BME280;33476;50.984;3.538;2023-07-13T10:42:54;101841.06;;;25.42;48.55
47716;BME280;33476;50.984;3.538;2023-07-13T10:45:23;101839.16;;;24.96;50.87
47716;BME280;33476;50.984;3.538;2023-07-13T10:47:50;101843.66;;;24.56;52.50
47716;BME280;33476;50.984;3.538;2023-07-13T10:50:29;101859.88;;;24.24;53.55
47716;BME280;33476;50.984;3.538;2023-07-13T10:53:03;101864.84;;;23.98;54.67
47716;BME280;33476;50.984;3.538;2023-07-13T10:56:02;101869.09;;;23.70;55.83
47716;BME280;33476;50.984;3.538;2023-07-13T10:58:38;101862.41;;;23.55;55.59
47716;BME280;33476;50.984;3.538;2023-07-13T11:01:08;101864.19;;;23.45;54.72
47716;BME280;33476;50.984;3.538;2023-07-13T11:03:37;101862.50;;;23.44;54.55
47716;BME280;33476;50.984;3.538;2023-07-13T11:06:11;101860.66;;;23.44;54.30
47716;BME280;33476;50.984;3.538;2023-07-13T11:09:19;101856.69;;;23.39;54.95
47716;BME280;33476;50.984;3.538;2023-07-13T11:11:44;101856.28;;;23.64;53.22
47716;BME280;33476;50.984;3.538;2023-07-13T11:14:29;101856.16;;;23.66;54.01
47716;BME280;33476;50.984;3.538;2023-07-13T11:16:55;101851.06;;;23.84;53.37
47716;BME280;33476;50.984;3.538;2023-07-13T11:25:21;101845.78;;;24.53;53.17
47716;BME280;33476;50.984;3.538;2023-07-13T11:28:24;101843.53;;;24.77;53.20
47716;BME280;33476;50.984;3.538;2023-07-13T11:38:37;101820.63;;;25.51;48.88
47716;BME280;33476;50.984;3.538;2023-07-13T11:41:25;101822.41;;;25.60;49.32
47716;BME280;33476;50.984;3.538;2023-07-13T11:44:02;101814.63;;;25.76;48.63
47716;BME280;33476;50.984;3.538;2023-07-13T11:46:30;101817.75;;;25.99;47.88
47716;BME280;33476;50.984;3.538;2023-07-13T11:48:55;101817.06;;;26.15;47.93
47716;BME280;33476;50.984;3.538;2023-07-13T11:51:24;101815.56;;;26.30;47.85
47716;BME280;33476;50.984;3.538;2023-07-13T11:53:53;101815.44;;;26.31;47.55
47716;BME280;33476;50.984;3.538;2023-07-13T11:56:19;101820.22;;;26.28;46.46
47716;BME280;33476;50.984;3.538;2023-07-13T11:58:48;101813.94;;;26.19;46.37
47716;BME280;33476;50.984;3.538;2023-07-13T12:01:27;101810.66;;;26.08;46.86
47716;BME280;33476;50.984;3.538;2023-07-13T12:03:59;101811.94;;;26.03;47.07
47716;BME280;33476;50.984;3.538;2023-07-13T12:06:29;101806.63;;;25.94;47.09
47716;BME280;33476;50.984;3.538;2023-07-13T12:08:59;101800.13;;;25.96;47.31
47716;BME280;33476;50.984;3.538;2023-07-13T12:11:26;101796.38;;;26.17;46.20
47716;BME280;33476;50.984;3.538;2023-07-13T12:13:52;101789.00;;;26.37;46.05
47716;BME280;33476;50.984;3.538;2023-07-13T12:18:52;101791.34;;;26.67;44.68
47716;BME280;33476;50.984;3.538;2023-07-13T12:21:19;101795.81;;;26.84;44.39
47716;BME280;33476;50.984;3.538;2023-07-13T12:23:48;101788.22;;;26.98;43.87
47716;BME280;33476;50.984;3.538;2023-07-13T12:26:15;101786.31;;;27.08;43.66
47716;BME280;33476;50.984;3.538;2023-07-13T12:28:49;101781.69;;;27.00;42.60
47716;BME280;33476;50.984;3.538;2023-07-13T12:31:41;101781.41;;;27.03;42.34
47716;BME280;33476;50.984;3.538;2023-07-13T12:34:09;101779.94;;;27.09;41.79
47716;BME280;33476;50.984;3.538;2023-07-13T12:36:39;101789.28;;;27.05;42.09
47716;BME280;33476;50.984;3.538;2023-07-13T12:39:24;101776.34;;;27.00;40.96
47716;BME280;33476;50.984;3.538;2023-07-13T12:41:52;101782.28;;;27.12;40.29
47716;BME280;33476;50.984;3.538;2023-07-13T12:44:25;101782.97;;;27.14;39.11
47716;BME280;33476;50.984;3.538;2023-07-13T12:46:54;101780.72;;;27.27;38.67
47716;BME280;33476;50.984;3.538;2023-07-13T12:49:30;101765.88;;;27.41;38.25
47716;BME280;33476;50.984;3.538;2023-07-13T12:52:01;101786.41;;;27.58;37.53
47716;BME280;33476;50.984;3.538;2023-07-13T12:54:29;101782.91;;;27.66;37.37
47716;BME280;33476;50.984;3.538;2023-07-13T12:56:56;101773.81;;;27.59;36.80
47716;BME280;33476;50.984;3.538;2023-07-13T12:59:25;101777.28;;;27.43;36.49
47716;BME280;33476;50.984;3.538;2023-07-13T13:01:53;101775.59;;;27.42;37.52
47716;BME280;33476;50.984;3.538;2023-07-13T13:04:19;101789.09;;;27.58;36.69
47716;BME280;33476;50.984;3.538;2023-07-13T13:06:48;101783.22;;;27.63;36.53
47716;BME280;33476;50.984;3.538;2023-07-13T13:09:16;101791.34;;;27.71;37.02
47716;BME280;33476;50.984;3.538;2023-07-13T13:11:43;101788.72;;;27.87;36.78
47716;BME280;33476;50.984;3.538;2023-07-13T13:14:08;101788.56;;;27.89;35.94
47716;BME280;33476;50.984;3.538;2023-07-13T13:16:46;101791.38;;;27.87;35.86
47716;BME280;33476;50.984;3.538;2023-07-13T13:19:17;101792.78;;;27.99;35.63
47716;BME280;33476;50.984;3.538;2023-07-13T13:21:44;101790.78;;;28.02;35.10
47716;BME280;33476;50.984;3.538;2023-07-13T13:24:15;101782.72;;;28.02;35.78
47716;BME280;33476;50.984;3.538;2023-07-13T13:26:43;101786.28;;;28.18;35.71
47716;BME280;33476;50.984;3.538;2023-07-13T13:29:14;101787.69;;;28.31;34.59